sensor_id;sensor_type;location;lat;lon;timestamp;temperature;humidity
5870;DHT22;2961;47.702;9.410;2023-11-22T00:00:13;5.70;99.90
5870;DHT22;2961;47.702;9.410;2023-11-22T00:02:41;5.70;99.90
5870;DHT22;2961;47.702;9.410;2023-11-22T00:05:08;5.70;99.90
5870;DHT22;2961;47.702;9.410;2023-11-22T00:07:36;5.70;99.90
5870;DHT22;2961;47.702;9.410;2023-11-22T00:10:04;5.70;99.90
5870;DHT22;2961;47.702;9.410;2023-11-22T00:12:31;5.70;99.90
5870;DHT22;2961;47.702;9.410;2023-11-22T00:15:02;5.70;99.90
5870;DHT22;2961;47.702;9.410;2023-11-22T00:17:30;5.70;99.90
5870;DHT22;2961;47.702;9.410;2023-11-22T00:19:58;5.70;99.90
5870;DHT22;2961;47.702;9.410;2023-11-22T00:22:26;5.60;99.90
5870;DHT22;2961;47.702;9.410;2023-11-22T00:24:53;5.60;99.90
5870;DHT22;2961;47.702;9.410;2023-11-22T00:27:20;5.60;99.90
5870;DHT22;2961;47.702;9.410;2023-11-22T00:29:47;5.60;99.90
5870;DHT22;2961;47.702;9.410;2023-11-22T00:32:14;5.60;99.90
5870;DHT22;2961;47.702;9.410;2023-11-22T00:34:41;5.60;99.90
5870;DHT22;2961;47.702;9.410;2023-11-22T00:37:09;5.60;99.90
5870;DHT22;2961;47.702;9.410;2023-11-22T00:39:36;5.70;99.90
5870;DHT22;2961;47.702;9.410;2023-11-22T00:42:03;5.70;99.90
5870;DHT22;2961;47.702;9.410;2023-11-22T00:44:30;5.60;99.90
5870;DHT22;2961;47.702;9.410;2023-11-22T00:46:57;5.60;99.90
5870;DHT22;2961;47.702;9.410;2023-11-22T00:49:24;5.60;99.90
5870;DHT22;2961;47.702;9.410;2023-11-22T00:51:51;5.60;99.90
5870;DHT22;2961;47.702;9.410;2023-11-22T00:54:19;5.60;99.90
5870;DHT22;2961;47.702;9.410;2023-11-22T00:56:46;5.60;99.90
5870;DHT22;2961;47.702;9.410;2023-11-22T00:59:13;5.60;99.90
5870;DHT22;2961;47.702;9.410;2023-11-22T01:01:40;5.70;99.90
5870;DHT22;2961;47.702;9.410;2023-11-22T01:04:07;5.70;99.90
5870;DHT22;2961;47.702;9.410;2023-11-22T01:06:34;5.70;99.90
5870;DHT22;2961;47.702;9.410;2023-11-22T01:09:02;5.60;99.90
5870;DHT22;2961;47.702;9.410;2023-11-22T01:11:30;5.60;99.90
5870;DHT22;2961;47.702;9.410;2023-11-22T01:13:57;5.70;99.90
5870;DHT22;2961;47.702;9.410;2023-11-22T01:16:24;5.60;99.90
5870;DHT22;2961;47.702;9.410;2023-11-22T01:18:51;5.60;99.90
5870;DHT22;2961;47.702;9.410;2023-11-22T01:21:18;5.60;99.90
5870;DHT22;2961;47.702;9.410;2023-11-22T01:23:45;5.60;99.90
5870;DHT22;2961;47.702;9.410;2023-11-22T01:26:12;5.60;99.90
5870;DHT22;2961;47.702;9.410;2023-11-22T01:28:40;5.60;99.90
5870;DHT22;2961;47.702;9.410;2023-11-22T01:31:11;5.60;99.90
5870;DHT22;2961;47.702;9.410;2023-11-22T01:33:38;5.60;99.90
5870;DHT22;2961;47.702;9.410;2023-11-22T01:36:06;5.60;99.90
5870;DHT22;2961;47.702;9.410;2023-11-22T01:38:33;5.60;99.90
5870;DHT22;2961;47.702;9.410;2023-11-22T01:41:00;5.50;99.90
5870;DHT22;2961;47.702;9.410;2023-11-22T01:43:27;5.60;99.90
5870;DHT22;2961;47.702;9.410;2023-11-22T01:45:55;5.60;99.90
5870;DHT22;2961;47.702;9.410;2023-11-22T01:48:22;5.70;99.90
5870;DHT22;2961;47.702;9.410;2023-11-22T01:50:50;5.70;99.90
5870;DHT22;2961;47.702;9.410;2023-11-22T01:53:16;5.70;99.90
5870;DHT22;2961;47.702;9.410;2023-11-22T01:55:44;5.60;99.90
5870;DHT22;2961;47.702;9.410;2023-11-22T01:58:12;5.60;99.90
5870;DHT22;2961;47.702;9.410;2023-11-22T02:00:45;5.60;99.90
5870;DHT22;2961;47.702;9.410;2023-11-22T02:03:13;5.60;99.90
5870;DHT22;2961;47.702;9.410;2023-11-22T02:05:42;5.60;99.90
5870;DHT22;2961;47.702;9.410;2023-11-22T02:08:09;5.60;99.90
5870;DHT22;2961;47.702;9.410;2023-11-22T02:10:36;5.60;99.90
5870;DHT22;2961;47.702;9.410;2023-11-22T02:13:03;5.60;99.90
5870;DHT22;2961;47.702;9.410;2023-11-22T02:15:33;5.60;99.90
5870;DHT22;2961;47.702;9.410;2023-11-22T02:18:00;5.60;99.90
5870;DHT22;2961;47.702;9.410;2023-11-22T02:20:28;5.60;99.90
5870;DHT22;2961;47.702;9.410;2023-11-22T02:22:55;5.60;99.90
5870;DHT22;2961;47.702;9.410;2023-11-22T02:25:24;5.60;99.90
5870;DHT22;2961;47.702;9.410;2023-11-22T02:27:50;5.70;99.90
5870;DHT22;2961;47.702;9.410;2023-11-22T02:30:17;5.70;99.90
5870;DHT22;2961;47.702;9.410;2023-11-22T02:32:44;5.80;99.90
5870;DHT22;2961;47.702;9.410;2023-11-22T02:35:11;5.80;99.90
5870;DHT22;2961;47.702;9.410;2023-11-22T02:37:38;5.80;99.90
5870;DHT22;2961;47.702;9.410;2023-11-22T02:40:09;5.70;99.90
5870;DHT22;2961;47.702;9.410;2023-11-22T02:42:42;5.70;99.90
5870;DHT22;2961;47.702;9.410;2023-11-22T02:45:09;5.70;99.90
5870;DHT22;2961;47.702;9.410;2023-11-22T02:47:36;5.70;99.90
5870;DHT22;2961;47.702;9.410;2023-11-22T02:50:04;5.70;99.90
5870;DHT22;2961;47.702;9.410;2023-11-22T02:52:31;5.70;99.90
5870;DHT22;2961;47.702;9.410;2023-11-22T02:54:58;5.80;99.90
5870;DHT22;2961;47.702;9.410;2023-11-22T02:57:25;5.70;99.90
5870;DHT22;2961;47.702;9.410;2023-11-22T02:59:53;5.80;99.90
5870;DHT22;2961;47.702;9.410;2023-11-22T03:02:19;5.70;99.90
5870;DHT22;2961;47.702;9.410;2023-11-22T03:04:46;5.70;99.90
5870;DHT22;2961;47.702;9.410;2023-11-22T03:07:13;5.70;99.90
5870;DHT22;2961;47.702;9.410;2023-11-22T03:09:40;5.70;99.90
5870;DHT22;2961;47.702;9.410;2023-11-22T03:12:09;5.70;99.90
5870;DHT22;2961;47.702;9.410;2023-11-22T03:14:38;5.70;99.90
5870;DHT22;2961;47.702;9.410;2023-11-22T03:17:06;5.70;99.90
5870;DHT22;2961;47.702;9.410;2023-11-22T03:19:33;5.70;99.90
5870;DHT22;2961;47.702;9.410;2023-11-22T03:22:00;5.70;99.90
5870;DHT22;2961;47.702;9.410;2023-11-22T03:24:28;5.80;99.90
5870;DHT22;2961;47.702;9.410;2023-11-22T03:26:55;5.80;99.90
5870;DHT22;2961;47.702;9.410;2023-11-22T03:29:24;5.80;99.90
5870;DHT22;2961;47.702;9.410;2023-11-22T03:31:51;5.80;99.90
5870;DHT22;2961;47.702;9.410;2023-11-22T03:34:19;5.80;99.90
5870;DHT22;2961;47.702;9.410;2023-11-22T03:36:46;5.70;99.90
5870;DHT22;2961;47.702;9.410;2023-11-22T03:39:14;5.70;99.90
5870;DHT22;2961;47.702;9.410;2023-11-22T03:41:40;5.80;99.90
5870;DHT22;2961;47.702;9.410;2023-11-22T03:44:07;5.80;99.90
5870;DHT22;2961;47.702;9.410;2023-11-22T03:46:35;5.70;99.90
5870;DHT22;2961;47.702;9.410;2023-11-22T03:49:02;5.70;99.90
5870;DHT22;2961;47.702;9.410;2023-11-22T03:51:30;5.70;99.90
5870;DHT22;2961;47.702;9.410;2023-11-22T03:53:57;5.80;99.90
5870;DHT22;2961;47.702;9.410;2023-11-22T03:56:24;5.70;99.90
5870;DHT22;2961;47.702;9.410;2023-11-22T03:58:51;5.80;99.90
5870;DHT22;2961;47.702;9.410;2023-11-22T04:01:18;5.80;99.90
5870;DHT22;2961;47.702;9.410;2023-11-22T04:03:46;5.80;99.90
5870;DHT22;2961;47.702;9.410;2023-11-22T04:06:13;5.80;99.90
5870;DHT22;2961;47.702;9.410;2023-11-22T04:08:42;5.80;99.90
5870;DHT22;2961;47.702;9.410;2023-11-22T04:11:10;5.80;99.90
5870;DHT22;2961;47.702;9.410;2023-11-22T04:13:37;5.80;99.90
5870;DHT22;2961;47.702;9.410;2023-11-22T04:16:04;5.70;99.90
5870;DHT22;2961;47.702;9.410;2023-11-22T04:18:34;5.70;99.90
5870;DHT22;2961;47.702;9.410;2023-11-22T04:21:01;5.70;99.90
5870;DHT22;2961;47.702;9.410;2023-11-22T04:23:30;5.70;99.90
5870;DHT22;2961;47.702;9.410;2023-11-22T04:25:59;5.70;99.90
5870;DHT22;2961;47.702;9.410;2023-11-22T04:28:27;5.70;99.90
5870;DHT22;2961;47.702;9.410;2023-11-22T04:30:55;5.80;99.90
5870;DHT22;2961;47.702;9.410;2023-11-22T04:33:22;5.80;99.90
5870;DHT22;2961;47.702;9.410;2023-11-22T04:35:50;5.80;99.90
5870;DHT22;2961;47.702;9.410;2023-11-22T04:38:17;5.70;99.90
5870;DHT22;2961;47.702;9.410;2023-11-22T04:40:44;5.70;99.90
5870;DHT22;2961;47.702;9.410;2023-11-22T04:43:12;5.70;99.90
5870;DHT22;2961;47.702;9.410;2023-11-22T04:45:39;5.70;99.90
5870;DHT22;2961;47.702;9.410;2023-11-22T04:48:06;5.70;99.90
5870;DHT22;2961;47.702;9.410;2023-11-22T04:50:33;5.70;99.90
5870;DHT22;2961;47.702;9.410;2023-11-22T04:53:00;5.70;99.90
5870;DHT22;2961;47.702;9.410;2023-11-22T04:55:28;5.70;99.90
5870;DHT22;2961;47.702;9.410;2023-11-22T04:57:55;5.70;99.90
5870;DHT22;2961;47.702;9.410;2023-11-22T05:00:23;5.70;99.90
5870;DHT22;2961;47.702;9.410;2023-11-22T05:02:50;5.70;99.90
5870;DHT22;2961;47.702;9.410;2023-11-22T05:05:16;5.60;99.90
5870;DHT22;2961;47.702;9.410;2023-11-22T05:07:43;5.60;99.90
5870;DHT22;2961;47.702;9.410;2023-11-22T05:10:11;5.60;99.90
5870;DHT22;2961;47.702;9.410;2023-11-22T05:12:38;5.70;99.90
5870;DHT22;2961;47.702;9.410;2023-11-22T05:15:06;5.70;99.90
5870;DHT22;2961;47.702;9.410;2023-11-22T05:17:34;5.60;99.90
5870;DHT22;2961;47.702;9.410;2023-11-22T05:20:01;5.60;99.90
5870;DHT22;2961;47.702;9.410;2023-11-22T05:22:27;5.70;99.90
5870;DHT22;2961;47.702;9.410;2023-11-22T05:24:54;5.70;99.90
5870;DHT22;2961;47.702;9.410;2023-11-22T05:27:21;5.70;99.90
5870;DHT22;2961;47.702;9.410;2023-11-22T05:29:48;5.60;99.90
5870;DHT22;2961;47.702;9.410;2023-11-22T05:32:15;5.50;99.90
5870;DHT22;2961;47.702;9.410;2023-11-22T05:34:44;5.40;99.90
5870;DHT22;2961;47.702;9.410;2023-11-22T05:37:10;5.30;99.90
5870;DHT22;2961;47.702;9.410;2023-11-22T05:39:37;5.10;99.90
5870;DHT22;2961;47.702;9.410;2023-11-22T05:42:04;5.10;99.90
5870;DHT22;2961;47.702;9.410;2023-11-22T05:44:32;5.10;99.90
5870;DHT22;2961;47.702;9.410;2023-11-22T05:46:59;5.00;99.90
5870;DHT22;2961;47.702;9.410;2023-11-22T05:49:26;5.00;99.90
5870;DHT22;2961;47.702;9.410;2023-11-22T05:51:55;4.90;99.90
5870;DHT22;2961;47.702;9.410;2023-11-22T05:54:22;4.90;99.90
5870;DHT22;2961;47.702;9.410;2023-11-22T05:56:48;4.90;99.90
5870;DHT22;2961;47.702;9.410;2023-11-22T05:59:15;4.80;99.90
5870;DHT22;2961;47.702;9.410;2023-11-22T06:01:42;4.80;99.90
5870;DHT22;2961;47.702;9.410;2023-11-22T06:04:09;4.80;99.90
5870;DHT22;2961;47.702;9.410;2023-11-22T06:06:36;4.80;99.90
5870;DHT22;2961;47.702;9.410;2023-11-22T06:09:05;4.80;99.90
5870;DHT22;2961;47.702;9.410;2023-11-22T06:11:32;4.70;99.90
5870;DHT22;2961;47.702;9.410;2023-11-22T06:13:59;4.70;99.90
5870;DHT22;2961;47.702;9.410;2023-11-22T06:16:26;4.60;99.90
5870;DHT22;2961;47.702;9.410;2023-11-22T06:18:53;4.60;99.90
5870;DHT22;2961;47.702;9.410;2023-11-22T06:21:20;4.50;99.90
5870;DHT22;2961;47.702;9.410;2023-11-22T06:23:46;4.50;99.90
5870;DHT22;2961;47.702;9.410;2023-11-22T06:26:16;4.50;99.90
5870;DHT22;2961;47.702;9.410;2023-11-22T06:28:43;4.50;99.90
5870;DHT22;2961;47.702;9.410;2023-11-22T06:31:14;4.40;99.90
5870;DHT22;2961;47.702;9.410;2023-11-22T06:33:40;4.40;99.90
5870;DHT22;2961;47.702;9.410;2023-11-22T06:36:07;4.40;99.90
5870;DHT22;2961;47.702;9.410;2023-11-22T06:38:36;4.50;99.90
5870;DHT22;2961;47.702;9.410;2023-11-22T06:41:03;4.40;99.90
5870;DHT22;2961;47.702;9.410;2023-11-22T06:43:31;4.50;99.90
5870;DHT22;2961;47.702;9.410;2023-11-22T06:45:58;4.50;99.90
5870;DHT22;2961;47.702;9.410;2023-11-22T06:48:26;4.50;99.90
5870;DHT22;2961;47.702;9.410;2023-11-22T06:50:53;4.50;99.90
5870;DHT22;2961;47.702;9.410;2023-11-22T06:53:20;4.40;99.90
5870;DHT22;2961;47.702;9.410;2023-11-22T06:55:46;4.40;99.90
5870;DHT22;2961;47.702;9.410;2023-11-22T06:58:13;4.40;99.90
5870;DHT22;2961;47.702;9.410;2023-11-22T07:00:41;4.30;99.90
5870;DHT22;2961;47.702;9.410;2023-11-22T07:03:09;4.40;99.90
5870;DHT22;2961;47.702;9.410;2023-11-22T07:05:36;4.40;99.90
5870;DHT22;2961;47.702;9.410;2023-11-22T07:08:03;4.40;99.90
5870;DHT22;2961;47.702;9.410;2023-11-22T07:10:30;4.30;99.90
5870;DHT22;2961;47.702;9.410;2023-11-22T07:12:59;4.40;99.90
5870;DHT22;2961;47.702;9.410;2023-11-22T07:15:27;4.40;99.90
5870;DHT22;2961;47.702;9.410;2023-11-22T07:17:55;4.40;99.90
5870;DHT22;2961;47.702;9.410;2023-11-22T07:20:21;4.40;99.90
5870;DHT22;2961;47.702;9.410;2023-11-22T07:22:49;4.40;99.90
5870;DHT22;2961;47.702;9.410;2023-11-22T07:25:20;4.40;99.90
5870;DHT22;2961;47.702;9.410;2023-11-22T07:27:50;4.50;99.90
5870;DHT22;2961;47.702;9.410;2023-11-22T07:30:19;4.50;99.90
5870;DHT22;2961;47.702;9.410;2023-11-22T07:32:49;4.50;99.90
5870;DHT22;2961;47.702;9.410;2023-11-22T07:35:17;4.40;99.90
5870;DHT22;2961;47.702;9.410;2023-11-22T07:37:45;4.40;99.90
5870;DHT22;2961;47.702;9.410;2023-11-22T07:40:13;4.40;99.90
5870;DHT22;2961;47.702;9.410;2023-11-22T07:42:40;4.30;99.90
5870;DHT22;2961;47.702;9.410;2023-11-22T07:45:09;4.30;99.90
5870;DHT22;2961;47.702;9.410;2023-11-22T07:47:37;4.30;99.90
5870;DHT22;2961;47.702;9.410;2023-11-22T07:50:07;4.30;99.90
5870;DHT22;2961;47.702;9.410;2023-11-22T07:52:35;4.30;99.90
5870;DHT22;2961;47.702;9.410;2023-11-22T07:55:03;4.30;99.90
5870;DHT22;2961;47.702;9.410;2023-11-22T07:57:33;4.30;99.90
5870;DHT22;2961;47.702;9.410;2023-11-22T08:00:00;4.40;99.90
5870;DHT22;2961;47.702;9.410;2023-11-22T08:02:32;4.40;99.90
5870;DHT22;2961;47.702;9.410;2023-11-22T08:04:59;4.40;99.90
5870;DHT22;2961;47.702;9.410;2023-11-22T08:07:27;4.40;99.90
5870;DHT22;2961;47.702;9.410;2023-11-22T08:09:55;4.40;99.90
5870;DHT22;2961;47.702;9.410;2023-11-22T08:12:22;4.30;99.90
5870;DHT22;2961;47.702;9.410;2023-11-22T08:14:49;4.30;99.90
5870;DHT22;2961;47.702;9.410;2023-11-22T08:17:16;4.30;99.90
5870;DHT22;2961;47.702;9.410;2023-11-22T08:19:44;4.30;99.90
5870;DHT22;2961;47.702;9.410;2023-11-22T08:22:13;4.30;99.90
5870;DHT22;2961;47.702;9.410;2023-11-22T08:24:40;4.20;99.90
5870;DHT22;2961;47.702;9.410;2023-11-22T08:27:08;4.20;99.90
5870;DHT22;2961;47.702;9.410;2023-11-22T08:29:35;4.10;99.90
5870;DHT22;2961;47.702;9.410;2023-11-22T08:32:02;4.10;99.90
5870;DHT22;2961;47.702;9.410;2023-11-22T08:34:30;4.10;99.90
5870;DHT22;2961;47.702;9.410;2023-11-22T08:36:57;4.00;99.90
5870;DHT22;2961;47.702;9.410;2023-11-22T08:39:24;4.00;99.90
5870;DHT22;2961;47.702;9.410;2023-11-22T08:41:51;4.00;99.90
5870;DHT22;2961;47.702;9.410;2023-11-22T08:44:19;3.90;99.90
5870;DHT22;2961;47.702;9.410;2023-11-22T08:46:46;3.90;99.90
5870;DHT22;2961;47.702;9.410;2023-11-22T08:49:13;3.90;99.90
5870;DHT22;2961;47.702;9.410;2023-11-22T08:51:40;3.90;99.90
5870;DHT22;2961;47.702;9.410;2023-11-22T08:54:08;3.80;99.90
5870;DHT22;2961;47.702;9.410;2023-11-22T08:56:35;3.80;99.90
5870;DHT22;2961;47.702;9.410;2023-11-22T08:59:01;3.80;99.90
5870;DHT22;2961;47.702;9.410;2023-11-22T09:01:32;3.80;99.90
5870;DHT22;2961;47.702;9.410;2023-11-22T09:03:58;3.80;99.90
5870;DHT22;2961;47.702;9.410;2023-11-22T09:06:25;3.80;99.90
5870;DHT22;2961;47.702;9.410;2023-11-22T09:08:55;3.80;99.90
5870;DHT22;2961;47.702;9.410;2023-11-22T09:11:22;3.80;99.90
5870;DHT22;2961;47.702;9.410;2023-11-22T09:13:49;3.80;99.90
5870;DHT22;2961;47.702;9.410;2023-11-22T09:16:16;3.90;99.90
5870;DHT22;2961;47.702;9.410;2023-11-22T09:18:46;4.00;99.90
5870;DHT22;2961;47.702;9.410;2023-11-22T09:21:13;4.10;99.90
5870;DHT22;2961;47.702;9.410;2023-11-22T09:23:39;4.10;99.90
5870;DHT22;2961;47.702;9.410;2023-11-22T09:26:06;4.20;99.90
5870;DHT22;2961;47.702;9.410;2023-11-22T09:28:33;4.10;99.90
5870;DHT22;2961;47.702;9.410;2023-11-22T09:31:00;4.00;99.90
5870;DHT22;2961;47.702;9.410;2023-11-22T09:33:31;4.00;99.90
5870;DHT22;2961;47.702;9.410;2023-11-22T09:36:00;3.90;99.90
5870;DHT22;2961;47.702;9.410;2023-11-22T09:38:29;3.90;99.90
5870;DHT22;2961;47.702;9.410;2023-11-22T09:40:56;3.80;99.90
5870;DHT22;2961;47.702;9.410;2023-11-22T09:43:25;3.80;99.90
5870;DHT22;2961;47.702;9.410;2023-11-22T09:45:54;3.90;99.90
5870;DHT22;2961;47.702;9.410;2023-11-22T09:48:23;4.00;99.90
5870;DHT22;2961;47.702;9.410;2023-11-22T09:50:57;4.00;99.90
5870;DHT22;2961;47.702;9.410;2023-11-22T09:53:31;4.00;99.90
5870;DHT22;2961;47.702;9.410;2023-11-22T09:56:00;4.00;99.90
5870;DHT22;2961;47.702;9.410;2023-11-22T09:58:30;4.10;99.90
5870;DHT22;2961;47.702;9.410;2023-11-22T10:00:58;4.00;99.90
5870;DHT22;2961;47.702;9.410;2023-11-22T10:03:27;4.10;99.90
5870;DHT22;2961;47.702;9.410;2023-11-22T10:05:54;4.10;99.90
5870;DHT22;2961;47.702;9.410;2023-11-22T10:08:23;4.10;99.90
5870;DHT22;2961;47.702;9.410;2023-11-22T10:10:51;4.10;99.90
5870;DHT22;2961;47.702;9.410;2023-11-22T10:13:19;4.10;99.90
5870;DHT22;2961;47.702;9.410;2023-11-22T10:15:47;4.20;99.90
5870;DHT22;2961;47.702;9.410;2023-11-22T10:18:14;4.20;99.90
5870;DHT22;2961;47.702;9.410;2023-11-22T10:20:44;4.30;99.90
5870;DHT22;2961;47.702;9.410;2023-11-22T10:23:13;4.30;99.90
5870;DHT22;2961;47.702;9.410;2023-11-22T10:25:43;4.30;99.90
5870;DHT22;2961;47.702;9.410;2023-11-22T10:28:12;4.30;99.90
5870;DHT22;2961;47.702;9.410;2023-11-22T10:30:39;4.20;99.90
5870;DHT22;2961;47.702;9.410;2023-11-22T10:33:06;4.20;99.90
5870;DHT22;2961;47.702;9.410;2023-11-22T10:35:33;4.20;99.90
5870;DHT22;2961;47.702;9.410;2023-11-22T10:38:00;4.30;99.90
5870;DHT22;2961;47.702;9.410;2023-11-22T10:40:32;4.40;99.90
5870;DHT22;2961;47.702;9.410;2023-11-22T10:42:58;4.40;99.90
5870;DHT22;2961;47.702;9.410;2023-11-22T10:45:30;4.50;99.90
5870;DHT22;2961;47.702;9.410;2023-11-22T10:47:56;4.60;99.90
5870;DHT22;2961;47.702;9.410;2023-11-22T10:50:24;4.60;99.90
5870;DHT22;2961;47.702;9.410;2023-11-22T10:52:52;4.60;99.90
5870;DHT22;2961;47.702;9.410;2023-11-22T10:55:21;4.50;99.90
5870;DHT22;2961;47.702;9.410;2023-11-22T10:57:55;4.30;99.90
5870;DHT22;2961;47.702;9.410;2023-11-22T11:00:24;4.20;99.90
5870;DHT22;2961;47.702;9.410;2023-11-22T11:03:00;4.10;99.90
5870;DHT22;2961;47.702;9.410;2023-11-22T11:05:30;4.10;99.90
5870;DHT22;2961;47.702;9.410;2023-11-22T11:08:00;4.10;99.90
5870;DHT22;2961;47.702;9.410;2023-11-22T11:10:35;4.00;99.90
5870;DHT22;2961;47.702;9.410;2023-11-22T11:13:02;4.00;99.90
5870;DHT22;2961;47.702;9.410;2023-11-22T11:15:29;4.00;99.90
5870;DHT22;2961;47.702;9.410;2023-11-22T11:17:57;4.00;99.90
5870;DHT22;2961;47.702;9.410;2023-11-22T11:20:24;4.10;99.90
5870;DHT22;2961;47.702;9.410;2023-11-22T11:22:52;4.10;99.90
5870;DHT22;2961;47.702;9.410;2023-11-22T11:25:21;4.20;99.90
5870;DHT22;2961;47.702;9.410;2023-11-22T11:27:57;4.30;99.90
5870;DHT22;2961;47.702;9.410;2023-11-22T11:30:44;4.50;99.90
5870;DHT22;2961;47.702;9.410;2023-11-22T11:33:14;4.70;99.90
5870;DHT22;2961;47.702;9.410;2023-11-22T11:35:43;4.70;99.90
5870;DHT22;2961;47.702;9.410;2023-11-22T11:38:12;4.70;99.90
5870;DHT22;2961;47.702;9.410;2023-11-22T11:40:41;4.70;99.90
5870;DHT22;2961;47.702;9.410;2023-11-22T11:43:08;4.80;99.90
5870;DHT22;2961;47.702;9.410;2023-11-22T11:45:38;4.90;99.90
5870;DHT22;2961;47.702;9.410;2023-11-22T11:48:06;4.90;99.90
5870;DHT22;2961;47.702;9.410;2023-11-22T11:50:34;4.90;99.90
5870;DHT22;2961;47.702;9.410;2023-11-22T11:53:02;4.80;99.90
5870;DHT22;2961;47.702;9.410;2023-11-22T11:55:30;4.80;99.90
5870;DHT22;2961;47.702;9.410;2023-11-22T11:57:57;4.70;99.90
5870;DHT22;2961;47.702;9.410;2023-11-22T12:00:23;4.70;99.90
5870;DHT22;2961;47.702;9.410;2023-11-22T12:02:53;4.70;99.90
5870;DHT22;2961;47.702;9.410;2023-11-22T12:05:20;4.70;99.90
5870;DHT22;2961;47.702;9.410;2023-11-22T12:07:48;4.70;99.90
5870;DHT22;2961;47.702;9.410;2023-11-22T12:10:15;4.70;99.90
5870;DHT22;2961;47.702;9.410;2023-11-22T12:12:43;4.60;99.90
5870;DHT22;2961;47.702;9.410;2023-11-22T12:15:12;4.70;99.90
5870;DHT22;2961;47.702;9.410;2023-11-22T12:17:40;4.80;99.90
5870;DHT22;2961;47.702;9.410;2023-11-22T12:20:14;4.80;99.90
5870;DHT22;2961;47.702;9.410;2023-11-22T12:22:43;4.80;99.90
5870;DHT22;2961;47.702;9.410;2023-11-22T12:25:11;4.80;99.90
5870;DHT22;2961;47.702;9.410;2023-11-22T12:27:39;4.70;99.90
5870;DHT22;2961;47.702;9.410;2023-11-22T12:30:08;4.70;99.90
5870;DHT22;2961;47.702;9.410;2023-11-22T12:32:38;4.80;99.90
5870;DHT22;2961;47.702;9.410;2023-11-22T12:35:06;4.80;99.90
5870;DHT22;2961;47.702;9.410;2023-11-22T12:37:34;4.80;99.90
5870;DHT22;2961;47.702;9.410;2023-11-22T12:40:10;4.80;99.90
5870;DHT22;2961;47.702;9.410;2023-11-22T12:42:47;4.80;99.90
5870;DHT22;2961;47.702;9.410;2023-11-22T12:45:19;4.80;99.90
5870;DHT22;2961;47.702;9.410;2023-11-22T12:47:47;4.90;99.90
5870;DHT22;2961;47.702;9.410;2023-11-22T12:50:29;4.80;99.90
5870;DHT22;2961;47.702;9.410;2023-11-22T12:52:56;4.80;99.90
5870;DHT22;2961;47.702;9.410;2023-11-22T12:55:25;4.90;99.90
5870;DHT22;2961;47.702;9.410;2023-11-22T12:57:58;4.90;99.90
5870;DHT22;2961;47.702;9.410;2023-11-22T13:00:27;5.00;99.90
5870;DHT22;2961;47.702;9.410;2023-11-22T13:02:55;5.00;99.90
5870;DHT22;2961;47.702;9.410;2023-11-22T13:05:22;5.00;99.90
5870;DHT22;2961;47.702;9.410;2023-11-22T13:07:48;5.00;99.90
5870;DHT22;2961;47.702;9.410;2023-11-22T13:10:16;5.00;99.90
5870;DHT22;2961;47.702;9.410;2023-11-22T13:12:45;5.00;99.90
5870;DHT22;2961;47.702;9.410;2023-11-22T13:15:12;4.90;99.90
5870;DHT22;2961;47.702;9.410;2023-11-22T13:17:39;5.00;99.90
5870;DHT22;2961;47.702;9.410;2023-11-22T13:20:07;5.00;99.90
5870;DHT22;2961;47.702;9.410;2023-11-22T13:22:39;5.00;99.90
5870;DHT22;2961;47.702;9.410;2023-11-22T13:25:07;5.00;99.90
5870;DHT22;2961;47.702;9.410;2023-11-22T13:27:35;5.00;99.90
5870;DHT22;2961;47.702;9.410;2023-11-22T13:30:05;5.00;99.90
5870;DHT22;2961;47.702;9.410;2023-11-22T13:32:32;4.90;99.90
5870;DHT22;2961;47.702;9.410;2023-11-22T13:34:59;4.80;99.90
5870;DHT22;2961;47.702;9.410;2023-11-22T13:37:25;4.90;99.90
5870;DHT22;2961;47.702;9.410;2023-11-22T13:39:53;4.90;99.90
5870;DHT22;2961;47.702;9.410;2023-11-22T13:42:20;4.90;99.90
5870;DHT22;2961;47.702;9.410;2023-11-22T13:44:46;4.80;99.90
5870;DHT22;2961;47.702;9.410;2023-11-22T13:47:15;4.80;99.90
5870;DHT22;2961;47.702;9.410;2023-11-22T13:49:42;4.80;99.90
5870;DHT22;2961;47.702;9.410;2023-11-22T13:52:09;4.70;99.90
5870;DHT22;2961;47.702;9.410;2023-11-22T13:54:36;4.60;99.90
5870;DHT22;2961;47.702;9.410;2023-11-22T13:57:04;4.50;99.90
5870;DHT22;2961;47.702;9.410;2023-11-22T13:59:31;4.50;99.90
5870;DHT22;2961;47.702;9.410;2023-11-22T14:01:58;4.50;99.90
5870;DHT22;2961;47.702;9.410;2023-11-22T14:04:27;4.50;99.90
5870;DHT22;2961;47.702;9.410;2023-11-22T14:06:54;4.50;99.90
5870;DHT22;2961;47.702;9.410;2023-11-22T14:09:22;4.60;99.90
5870;DHT22;2961;47.702;9.410;2023-11-22T14:11:49;4.50;99.90
5870;DHT22;2961;47.702;9.410;2023-11-22T14:14:15;4.50;99.90
5870;DHT22;2961;47.702;9.410;2023-11-22T14:16:44;4.50;99.90
5870;DHT22;2961;47.702;9.410;2023-11-22T14:19:14;4.60;99.90
5870;DHT22;2961;47.702;9.410;2023-11-22T14:21:42;4.50;99.90
5870;DHT22;2961;47.702;9.410;2023-11-22T14:24:09;4.60;99.90
5870;DHT22;2961;47.702;9.410;2023-11-22T14:26:36;4.50;99.90
5870;DHT22;2961;47.702;9.410;2023-11-22T14:29:03;4.40;99.90
5870;DHT22;2961;47.702;9.410;2023-11-22T14:31:31;4.30;99.90
5870;DHT22;2961;47.702;9.410;2023-11-22T14:33:58;4.30;99.90
5870;DHT22;2961;47.702;9.410;2023-11-22T14:36:25;4.40;99.90
5870;DHT22;2961;47.702;9.410;2023-11-22T14:38:53;4.30;99.90
5870;DHT22;2961;47.702;9.410;2023-11-22T14:41:22;4.20;99.90
5870;DHT22;2961;47.702;9.410;2023-11-22T14:43:49;4.10;99.90
5870;DHT22;2961;47.702;9.410;2023-11-22T14:46:15;4.00;99.90
5870;DHT22;2961;47.702;9.410;2023-11-22T14:48:43;3.90;99.90
5870;DHT22;2961;47.702;9.410;2023-11-22T14:51:12;3.90;99.90
5870;DHT22;2961;47.702;9.410;2023-11-22T14:53:39;3.80;99.90
5870;DHT22;2961;47.702;9.410;2023-11-22T14:56:11;3.70;99.90
5870;DHT22;2961;47.702;9.410;2023-11-22T14:58:37;3.70;99.90
5870;DHT22;2961;47.702;9.410;2023-11-22T15:01:05;3.70;99.90
5870;DHT22;2961;47.702;9.410;2023-11-22T15:03:34;3.70;99.90
5870;DHT22;2961;47.702;9.410;2023-11-22T15:06:01;3.60;99.90
5870;DHT22;2961;47.702;9.410;2023-11-22T15:08:27;3.60;99.90
5870;DHT22;2961;47.702;9.410;2023-11-22T15:10:54;3.50;99.90
5870;DHT22;2961;47.702;9.410;2023-11-22T15:13:22;3.50;99.90
5870;DHT22;2961;47.702;9.410;2023-11-22T15:15:50;3.50;99.90
5870;DHT22;2961;47.702;9.410;2023-11-22T15:18:16;3.40;99.90
5870;DHT22;2961;47.702;9.410;2023-11-22T15:20:43;3.40;99.90
5870;DHT22;2961;47.702;9.410;2023-11-22T15:23:10;3.40;99.90
5870;DHT22;2961;47.702;9.410;2023-11-22T15:25:37;3.40;99.90
5870;DHT22;2961;47.702;9.410;2023-11-22T15:28:04;3.40;99.90
5870;DHT22;2961;47.702;9.410;2023-11-22T15:30:32;3.40;99.90
5870;DHT22;2961;47.702;9.410;2023-11-22T15:32:59;3.40;99.90
5870;DHT22;2961;47.702;9.410;2023-11-22T15:35:27;3.40;99.90
5870;DHT22;2961;47.702;9.410;2023-11-22T15:37:53;3.40;99.90
5870;DHT22;2961;47.702;9.410;2023-11-22T15:40:20;3.40;99.90
5870;DHT22;2961;47.702;9.410;2023-11-22T15:42:49;3.30;99.90
5870;DHT22;2961;47.702;9.410;2023-11-22T15:45:18;3.30;99.90
5870;DHT22;2961;47.702;9.410;2023-11-22T15:47:48;3.30;99.90
5870;DHT22;2961;47.702;9.410;2023-11-22T15:50:14;3.20;99.90
5870;DHT22;2961;47.702;9.410;2023-11-22T15:52:42;3.10;99.90
5870;DHT22;2961;47.702;9.410;2023-11-22T15:55:09;3.00;99.90
5870;DHT22;2961;47.702;9.410;2023-11-22T15:57:36;3.00;99.90
5870;DHT22;2961;47.702;9.410;2023-11-22T16:00:03;2.90;99.90
5870;DHT22;2961;47.702;9.410;2023-11-22T16:02:35;2.90;99.90
5870;DHT22;2961;47.702;9.410;2023-11-22T16:05:04;2.80;99.90
5870;DHT22;2961;47.702;9.410;2023-11-22T16:07:32;2.80;99.90
5870;DHT22;2961;47.702;9.410;2023-11-22T16:09:59;2.70;99.90
5870;DHT22;2961;47.702;9.410;2023-11-22T16:12:26;2.60;99.90
5870;DHT22;2961;47.702;9.410;2023-11-22T16:14:53;2.60;99.90
5870;DHT22;2961;47.702;9.410;2023-11-22T16:17:20;2.60;99.90
5870;DHT22;2961;47.702;9.410;2023-11-22T16:19:46;2.60;99.90